CES5031 ZSAM-ZSHC
Flight info
| Callsign | CES5031 |
|---|---|
| Flight time | 1h 1m |
| Altitude | 29100 |
| Route | DOVP5U DOVPU W643 FOC W644 AKAVO A470 UGAGO UGAG13 |
| Aircraft | A21N/M-SDE3FGHIRWY/LB1 |
Departure
| Time | 2026-05-08 13:42 |
|---|---|
| Airport | Xiamen Gaoqi International Airport (ZSAM) |
Arrival
| Time | 2026-05-08 14:44 |
|---|---|
| Airport | Hangzhou Xiaoshan International Airport (ZSHC) |
| Time | Latitude | Longitude | Altitude | Speed | Heading |
|---|---|---|---|---|---|
| 2026-05-08 13:20 | 24.53954 | 118.12818 | 70 ft | 0 kts | 142° |
| 2026-05-08 13:28 | 24.53958 | 118.12815 | 70 ft | 2 kts | 142° |
| 2026-05-08 13:28 | 24.53970 | 118.12804 | 70 ft | 2 kts | 142° |
| 2026-05-08 13:28 | 24.53982 | 118.12794 | 70 ft | 2 kts | 142° |
| 2026-05-08 13:29 | 24.53993 | 118.12785 | 70 ft | 2 kts | 142° |
| 2026-05-08 13:29 | 24.54001 | 118.12779 | 70 ft | 2 kts | 141° |
| 2026-05-08 13:29 | 24.54009 | 118.12765 | 70 ft | 2 kts | 102° |
| 2026-05-08 13:29 | 24.54009 | 118.12749 | 70 ft | 2 kts | 72° |
| 2026-05-08 13:30 | 24.54005 | 118.12740 | 70 ft | 0 kts | 53° |
| 2026-05-08 13:30 | 24.54000 | 118.12734 | 70 ft | 0 kts | 51° |
| 2026-05-08 13:30 | 24.54001 | 118.12734 | 70 ft | 0 kts | 51° |
| 2026-05-08 13:32 | 24.54003 | 118.12737 | 70 ft | 1 kts | 51° |
| 2026-05-08 13:32 | 24.54012 | 118.12750 | 70 ft | 4 kts | 52° |
| 2026-05-08 13:33 | 24.54050 | 118.12804 | 70 ft | 12 kts | 53° |
| 2026-05-08 13:33 | 24.54139 | 118.12835 | 70 ft | 18 kts | 326° |
| 2026-05-08 13:33 | 24.54160 | 118.12704 | 70 ft | 23 kts | 234° |
| 2026-05-08 13:33 | 24.54057 | 118.12558 | 70 ft | 24 kts | 233° |
| 2026-05-08 13:34 | 24.53952 | 118.12412 | 71 ft | 24 kts | 232° |
| 2026-05-08 13:34 | 24.53843 | 118.12260 | 71 ft | 25 kts | 231° |
| 2026-05-08 13:34 | 24.53734 | 118.12108 | 71 ft | 25 kts | 232° |
| 2026-05-08 13:34 | 24.53621 | 118.11950 | 71 ft | 26 kts | 232° |
| 2026-05-08 13:35 | 24.53507 | 118.11791 | 71 ft | 26 kts | 233° |
| 2026-05-08 13:35 | 24.53402 | 118.11639 | 71 ft | 22 kts | 244° |
| 2026-05-08 13:35 | 24.53404 | 118.11556 | 71 ft | 0 kts | 284° |
| 2026-05-08 13:37 | 24.53404 | 118.11555 | 71 ft | 0 kts | 284° |
| 2026-05-08 13:37 | 24.53405 | 118.11552 | 71 ft | 0 kts | 285° |
| 2026-05-08 13:40 | 24.53405 | 118.11551 | 71 ft | 1 kts | 285° |
| 2026-05-08 13:40 | 24.53429 | 118.11501 | 71 ft | 12 kts | 315° |
| 2026-05-08 13:41 | 24.53526 | 118.11527 | 71 ft | 14 kts | 50° |
| 2026-05-08 13:41 | 24.53582 | 118.11604 | 71 ft | 4 kts | 52° |
| 2026-05-08 13:41 | 24.53588 | 118.11613 | 71 ft | 0 kts | 52° |
| 2026-05-08 13:41 | 24.53605 | 118.11636 | 71 ft | 19 kts | 52° |
| 2026-05-08 13:42 | 24.53857 | 118.11990 | 71 ft | 94 kts | 52° |
| 2026-05-08 13:42 | 24.54392 | 118.12736 | 71 ft | 153 kts | 52° |
| 2026-05-08 13:42 | 24.55139 | 118.13737 | 355 ft | 178 kts | 51° |
| 2026-05-08 13:42 | 24.55961 | 118.14838 | 899 ft | 190 kts | 52° |
| 2026-05-08 13:43 | 24.56762 | 118.15994 | 1615 ft | 198 kts | 53° |
| 2026-05-08 13:43 | 24.57637 | 118.17252 | 2033 ft | 219 kts | 52° |
| 2026-05-08 13:43 | 24.58601 | 118.18624 | 2540 ft | 236 kts | 52° |
| 2026-05-08 13:43 | 24.59644 | 118.20097 | 2953 ft | 244 kts | 52° |
| 2026-05-08 13:44 | 24.60704 | 118.21585 | 3573 ft | 253 kts | 51° |
| 2026-05-08 13:44 | 24.61888 | 118.23038 | 4404 ft | 257 kts | 46° |
| 2026-05-08 13:44 | 24.63188 | 118.24407 | 5134 ft | 265 kts | 43° |
| 2026-05-08 13:44 | 24.64534 | 118.25782 | 5845 ft | 271 kts | 43° |
| 2026-05-08 13:45 | 24.65925 | 118.27198 | 6574 ft | 277 kts | 42° |
| 2026-05-08 13:45 | 24.67347 | 118.28648 | 7312 ft | 282 kts | 42° |
| 2026-05-08 13:45 | 24.68799 | 118.30130 | 8056 ft | 286 kts | 41° |
| 2026-05-08 13:45 | 24.70247 | 118.31612 | 8756 ft | 290 kts | 41° |
| 2026-05-08 13:46 | 24.76300 | 118.38194 | 10924 ft | 327 kts | 45° |
| 2026-05-08 13:47 | 24.77893 | 118.40083 | 11216 ft | 344 kts | 45° |
| 2026-05-08 13:47 | 24.79884 | 118.42442 | 11551 ft | 363 kts | 45° |
| 2026-05-08 13:47 | 24.81626 | 118.44508 | 11822 ft | 378 kts | 45° |
| 2026-05-08 13:47 | 24.83445 | 118.46664 | 12071 ft | 393 kts | 45° |
| 2026-05-08 13:48 | 24.85361 | 118.48933 | 12318 ft | 407 kts | 45° |
| 2026-05-08 13:48 | 24.87314 | 118.51246 | 12546 ft | 420 kts | 45° |
| 2026-05-08 13:48 | 24.89344 | 118.53623 | 12854 ft | 430 kts | 44° |
| 2026-05-08 13:48 | 24.91409 | 118.56035 | 13339 ft | 434 kts | 44° |
| 2026-05-08 13:49 | 24.93491 | 118.58469 | 13828 ft | 438 kts | 44° |
| 2026-05-08 13:49 | 24.95584 | 118.60915 | 14308 ft | 442 kts | 44° |
| 2026-05-08 13:49 | 24.97702 | 118.63395 | 14776 ft | 445 kts | 44° |
| 2026-05-08 13:49 | 24.99834 | 118.65892 | 15231 ft | 448 kts | 45° |
| 2026-05-08 13:50 | 25.01980 | 118.68411 | 15661 ft | 452 kts | 45° |
| 2026-05-08 13:50 | 25.04154 | 118.70962 | 16089 ft | 454 kts | 45° |
| 2026-05-08 13:50 | 25.06339 | 118.73532 | 16470 ft | 458 kts | 45° |
| 2026-05-08 13:50 | 25.08507 | 118.76082 | 16858 ft | 461 kts | 45° |
| 2026-05-08 13:51 | 25.10720 | 118.78684 | 17237 ft | 464 kts | 45° |
| 2026-05-08 13:51 | 25.12921 | 118.81274 | 17603 ft | 467 kts | 44° |
| 2026-05-08 13:51 | 25.15092 | 118.83994 | 17816 ft | 472 kts | 52° |
| 2026-05-08 13:51 | 25.16535 | 118.87243 | 18012 ft | 481 kts | 71° |
| 2026-05-08 13:52 | 25.17352 | 118.90846 | 18480 ft | 481 kts | 77° |
| 2026-05-08 13:52 | 25.18060 | 118.94460 | 18836 ft | 484 kts | 77° |
| 2026-05-08 13:52 | 25.18871 | 118.98025 | 19141 ft | 487 kts | 72° |
| 2026-05-08 13:52 | 25.20126 | 119.01515 | 19463 ft | 487 kts | 63° |
| 2026-05-08 13:53 | 25.21814 | 119.04776 | 19813 ft | 487 kts | 54° |
| 2026-05-08 13:53 | 25.23844 | 119.07711 | 20133 ft | 486 kts | 46° |
| 2026-05-08 13:53 | 25.26141 | 119.10454 | 20467 ft | 487 kts | 43° |
| 2026-05-08 13:53 | 25.28521 | 119.13175 | 20787 ft | 489 kts | 43° |
| 2026-05-08 13:54 | 25.30878 | 119.15859 | 21116 ft | 491 kts | 43° |
| 2026-05-08 13:54 | 25.33259 | 119.18587 | 21422 ft | 494 kts | 43° |
| 2026-05-08 13:54 | 25.35636 | 119.21333 | 21727 ft | 496 kts | 43° |
| 2026-05-08 13:54 | 25.38046 | 119.24133 | 22028 ft | 498 kts | 43° |
| 2026-05-08 13:55 | 25.40473 | 119.26853 | 22299 ft | 497 kts | 38° |
| 2026-05-08 13:55 | 25.43220 | 119.29171 | 22611 ft | 495 kts | 30° |
| 2026-05-08 13:55 | 25.49030 | 119.33325 | 23176 ft | 498 kts | 28° |
| 2026-05-08 13:56 | 25.51924 | 119.35403 | 23438 ft | 500 kts | 29° |
| 2026-05-08 13:56 | 25.54815 | 119.37524 | 23754 ft | 501 kts | 29° |
| 2026-05-08 13:56 | 25.57735 | 119.39702 | 24172 ft | 500 kts | 29° |
| 2026-05-08 13:56 | 25.60589 | 119.41852 | 24588 ft | 499 kts | 30° |
| 2026-05-08 13:57 | 25.63453 | 119.44022 | 24987 ft | 498 kts | 29° |
| 2026-05-08 13:57 | 25.66293 | 119.46180 | 25384 ft | 497 kts | 29° |
| 2026-05-08 13:57 | 25.69143 | 119.48348 | 25779 ft | 496 kts | 29° |
| 2026-05-08 13:57 | 25.71997 | 119.50520 | 26155 ft | 495 kts | 29° |
| 2026-05-08 13:58 | 25.74814 | 119.52664 | 26530 ft | 494 kts | 28° |
| 2026-05-08 13:58 | 25.77655 | 119.54829 | 26903 ft | 493 kts | 28° |
| 2026-05-08 13:58 | 25.80488 | 119.56988 | 27262 ft | 493 kts | 28° |
| 2026-05-08 13:58 | 25.83292 | 119.59128 | 27619 ft | 492 kts | 28° |
| 2026-05-08 13:59 | 25.86126 | 119.61291 | 27926 ft | 492 kts | 28° |
| 2026-05-08 13:59 | 25.88949 | 119.63436 | 28193 ft | 493 kts | 27° |
| 2026-05-08 13:59 | 25.91837 | 119.65413 | 28451 ft | 490 kts | 23° |
| 2026-05-08 13:59 | 25.94825 | 119.67197 | 28691 ft | 488 kts | 20° |
| 2026-05-08 14:00 | 25.97681 | 119.68795 | 28910 ft | 488 kts | 19° |
| 2026-05-08 14:00 | 26.00719 | 119.70476 | 29145 ft | 488 kts | 19° |
| 2026-05-08 14:00 | 26.03805 | 119.72155 | 29225 ft | 487 kts | 17° |
| 2026-05-08 14:01 | 26.10030 | 119.74139 | 29237 ft | 469 kts | 1° |
| 2026-05-08 14:01 | 26.16429 | 119.74275 | 29244 ft | 458 kts | 350° |
| 2026-05-08 14:02 | 26.22801 | 119.73851 | 29239 ft | 458 kts | 349° |
| 2026-05-08 14:02 | 26.29188 | 119.73423 | 29240 ft | 457 kts | 349° |
| 2026-05-08 14:03 | 26.35530 | 119.73017 | 29241 ft | 458 kts | 349° |
| 2026-05-08 14:03 | 26.41955 | 119.72613 | 29244 ft | 459 kts | 349° |
| 2026-05-08 14:04 | 26.47265 | 119.72349 | 29243 ft | 461 kts | 352° |
| 2026-05-08 14:04 | 26.54776 | 119.72459 | 29253 ft | 462 kts | 354° |
| 2026-05-08 14:05 | 26.61224 | 119.72604 | 29250 ft | 463 kts | 354° |
| 2026-05-08 14:05 | 26.67650 | 119.72746 | 29252 ft | 461 kts | 354° |
| 2026-05-08 14:06 | 26.74099 | 119.72884 | 29252 ft | 462 kts | 354° |
| 2026-05-08 14:06 | 26.80538 | 119.73021 | 29255 ft | 462 kts | 354° |
| 2026-05-08 14:07 | 26.86956 | 119.73157 | 29258 ft | 463 kts | 353° |
| 2026-05-08 14:07 | 26.93402 | 119.73296 | 29263 ft | 462 kts | 353° |
| 2026-05-08 14:08 | 26.99680 | 119.72497 | 29254 ft | 445 kts | 338° |
| 2026-05-08 14:08 | 27.05286 | 119.69836 | 29261 ft | 432 kts | 324° |
| 2026-05-08 14:09 | 27.10421 | 119.66352 | 29259 ft | 431 kts | 323° |
| 2026-05-08 14:09 | 27.15541 | 119.62824 | 29258 ft | 432 kts | 323° |
| 2026-05-08 14:10 | 27.20676 | 119.59296 | 29269 ft | 433 kts | 323° |
| 2026-05-08 14:10 | 27.26276 | 119.56583 | 29258 ft | 448 kts | 338° |
| 2026-05-08 14:11 | 27.32564 | 119.55623 | 29273 ft | 463 kts | 351° |
| 2026-05-08 14:11 | 27.39012 | 119.55601 | 29265 ft | 465 kts | 353° |
| 2026-05-08 14:12 | 27.45494 | 119.55636 | 29269 ft | 466 kts | 353° |
| 2026-05-08 14:12 | 27.52014 | 119.55680 | 29262 ft | 466 kts | 353° |
| 2026-05-08 14:13 | 27.58494 | 119.55721 | 29276 ft | 466 kts | 353° |
| 2026-05-08 14:13 | 27.65064 | 119.55759 | 29271 ft | 469 kts | 353° |
| 2026-05-08 14:14 | 27.71586 | 119.55796 | 29275 ft | 469 kts | 353° |
| 2026-05-08 14:14 | 27.78135 | 119.55831 | 29276 ft | 470 kts | 353° |
| 2026-05-08 14:15 | 27.84678 | 119.55868 | 29275 ft | 470 kts | 353° |
| 2026-05-08 14:15 | 27.91196 | 119.55906 | 29274 ft | 470 kts | 353° |
| 2026-05-08 14:16 | 27.97775 | 119.55985 | 29287 ft | 472 kts | 354° |
| 2026-05-08 14:16 | 28.04368 | 119.56095 | 29277 ft | 473 kts | 354° |
| 2026-05-08 14:17 | 28.10960 | 119.56234 | 29277 ft | 475 kts | 355° |
| 2026-05-08 14:17 | 28.17610 | 119.56585 | 29278 ft | 475 kts | 356° |
| 2026-05-08 14:18 | 28.24211 | 119.56958 | 29276 ft | 476 kts | 356° |
| 2026-05-08 14:18 | 28.30845 | 119.57327 | 29276 ft | 476 kts | 356° |
| 2026-05-08 14:19 | 28.36379 | 119.57633 | 29276 ft | 476 kts | 355° |
| 2026-05-08 14:19 | 28.44128 | 119.58057 | 29279 ft | 478 kts | 355° |
| 2026-05-08 14:20 | 28.50784 | 119.58448 | 29283 ft | 479 kts | 356° |
| 2026-05-08 14:20 | 28.57429 | 119.58865 | 29290 ft | 478 kts | 356° |
| 2026-05-08 14:21 | 28.64072 | 119.59278 | 29030 ft | 480 kts | 356° |
| 2026-05-08 14:21 | 28.67425 | 119.59486 | 28778 ft | 477 kts | 356° |
| 2026-05-08 14:21 | 28.70731 | 119.59691 | 28527 ft | 475 kts | 356° |
| 2026-05-08 14:21 | 28.74016 | 119.59895 | 28279 ft | 472 kts | 356° |
| 2026-05-08 14:22 | 28.77309 | 119.60100 | 28026 ft | 471 kts | 356° |
| 2026-05-08 14:22 | 28.80566 | 119.60300 | 27784 ft | 472 kts | 356° |
| 2026-05-08 14:22 | 28.83877 | 119.60503 | 27527 ft | 474 kts | 356° |
| 2026-05-08 14:22 | 28.87141 | 119.60705 | 27282 ft | 475 kts | 356° |
| 2026-05-08 14:23 | 28.90459 | 119.60912 | 27030 ft | 474 kts | 357° |
| 2026-05-08 14:23 | 28.93736 | 119.61116 | 26784 ft | 475 kts | 357° |
| 2026-05-08 14:23 | 28.97050 | 119.61322 | 26536 ft | 476 kts | 356° |
| 2026-05-08 14:23 | 29.00369 | 119.61528 | 26285 ft | 477 kts | 356° |
| 2026-05-08 14:24 | 29.03683 | 119.61734 | 26033 ft | 477 kts | 356° |
| 2026-05-08 14:24 | 29.06998 | 119.61941 | 25687 ft | 478 kts | 357° |
| 2026-05-08 14:24 | 29.10313 | 119.62145 | 25029 ft | 479 kts | 356° |
| 2026-05-08 14:24 | 29.13684 | 119.62350 | 24188 ft | 480 kts | 357° |
| 2026-05-08 14:25 | 29.16996 | 119.62550 | 23304 ft | 482 kts | 357° |
| 2026-05-08 14:25 | 29.20250 | 119.62747 | 22627 ft | 478 kts | 358° |
| 2026-05-08 14:25 | 29.23593 | 119.62955 | 22036 ft | 473 kts | 358° |
| 2026-05-08 14:25 | 29.26870 | 119.63156 | 21436 ft | 468 kts | 358° |
| 2026-05-08 14:26 | 29.30084 | 119.63354 | 20824 ft | 464 kts | 358° |
| 2026-05-08 14:26 | 29.33301 | 119.63551 | 20211 ft | 460 kts | 358° |
| 2026-05-08 14:26 | 29.36480 | 119.63745 | 19607 ft | 455 kts | 358° |
| 2026-05-08 14:26 | 29.39629 | 119.63937 | 18999 ft | 451 kts | 359° |
| 2026-05-08 14:27 | 29.42768 | 119.64128 | 18333 ft | 448 kts | 359° |
| 2026-05-08 14:27 | 29.45865 | 119.64316 | 17662 ft | 445 kts | 359° |
| 2026-05-08 14:27 | 29.48927 | 119.64503 | 17054 ft | 441 kts | 359° |
| 2026-05-08 14:27 | 29.52000 | 119.64691 | 16478 ft | 435 kts | 359° |
| 2026-05-08 14:28 | 29.54993 | 119.64875 | 15924 ft | 429 kts | 360° |
| 2026-05-08 14:28 | 29.57961 | 119.64986 | 15381 ft | 422 kts | 358° |
| 2026-05-08 14:28 | 29.60879 | 119.65048 | 15059 ft | 417 kts | 358° |
| 2026-05-08 14:28 | 29.63784 | 119.65151 | 14993 ft | 417 kts | 0° |
| 2026-05-08 14:29 | 29.66666 | 119.65331 | 14985 ft | 407 kts | 1° |
| 2026-05-08 14:29 | 29.69459 | 119.65528 | 14848 ft | 391 kts | 1° |
| 2026-05-08 14:29 | 29.72117 | 119.65717 | 14637 ft | 379 kts | 1° |
| 2026-05-08 14:29 | 29.74712 | 119.65899 | 14414 ft | 362 kts | 1° |
| 2026-05-08 14:30 | 29.77164 | 119.66065 | 14030 ft | 342 kts | 1° |
| 2026-05-08 14:30 | 29.79489 | 119.66189 | 13653 ft | 324 kts | 1° |
| 2026-05-08 14:30 | 29.81676 | 119.66296 | 13296 ft | 306 kts | 1° |
| 2026-05-08 14:30 | 29.83773 | 119.66444 | 12730 ft | 299 kts | 8° |
| 2026-05-08 14:31 | 29.85691 | 119.67358 | 11982 ft | 302 kts | 37° |
| 2026-05-08 14:31 | 29.87040 | 119.69160 | 11350 ft | 300 kts | 57° |
| 2026-05-08 14:31 | 29.88082 | 119.71209 | 10720 ft | 296 kts | 58° |
| 2026-05-08 14:32 | 29.89806 | 119.74545 | 9691 ft | 289 kts | 58° |
| 2026-05-08 14:32 | 29.91174 | 119.77156 | 8847 ft | 285 kts | 58° |
| 2026-05-08 14:32 | 29.92187 | 119.79076 | 8232 ft | 280 kts | 59° |
| 2026-05-08 14:32 | 29.93190 | 119.80981 | 7886 ft | 273 kts | 59° |
| 2026-05-08 14:33 | 29.94166 | 119.82831 | 7560 ft | 273 kts | 59° |
| 2026-05-08 14:33 | 29.95154 | 119.84693 | 7188 ft | 273 kts | 59° |
| 2026-05-08 14:33 | 29.96151 | 119.86569 | 6819 ft | 271 kts | 60° |
| 2026-05-08 14:33 | 29.97127 | 119.88409 | 6449 ft | 269 kts | 60° |
| 2026-05-08 14:34 | 29.98097 | 119.90236 | 6079 ft | 268 kts | 60° |
| 2026-05-08 14:34 | 29.99062 | 119.92059 | 5706 ft | 266 kts | 60° |
| 2026-05-08 14:34 | 29.99997 | 119.93825 | 5402 ft | 255 kts | 60° |
| 2026-05-08 14:34 | 30.00916 | 119.95565 | 5151 ft | 251 kts | 60° |
| 2026-05-08 14:35 | 30.01823 | 119.97289 | 4899 ft | 250 kts | 60° |
| 2026-05-08 14:35 | 30.02733 | 119.99014 | 4666 ft | 247 kts | 60° |
| 2026-05-08 14:35 | 30.03610 | 120.00680 | 4460 ft | 240 kts | 60° |
| 2026-05-08 14:35 | 30.04465 | 120.02302 | 4231 ft | 234 kts | 60° |
| 2026-05-08 14:36 | 30.05307 | 120.03906 | 3915 ft | 232 kts | 62° |
| 2026-05-08 14:36 | 30.06057 | 120.05524 | 3700 ft | 227 kts | 64° |
| 2026-05-08 14:36 | 30.06817 | 120.07127 | 3443 ft | 228 kts | 63° |
| 2026-05-08 14:36 | 30.07580 | 120.08730 | 3164 ft | 226 kts | 63° |
| 2026-05-08 14:37 | 30.08315 | 120.10313 | 2946 ft | 224 kts | 64° |
| 2026-05-08 14:37 | 30.09050 | 120.11932 | 2929 ft | 226 kts | 64° |
| 2026-05-08 14:37 | 30.09771 | 120.13548 | 2925 ft | 226 kts | 64° |
| 2026-05-08 14:37 | 30.10489 | 120.15173 | 2897 ft | 227 kts | 65° |
| 2026-05-08 14:38 | 30.11209 | 120.16813 | 2881 ft | 227 kts | 65° |
| 2026-05-08 14:38 | 30.11918 | 120.18432 | 2861 ft | 221 kts | 65° |
| 2026-05-08 14:38 | 30.12451 | 120.19647 | 2844 ft | 210 kts | 65° |
| 2026-05-08 14:38 | 30.13185 | 120.21321 | 2890 ft | 204 kts | 65° |
| 2026-05-08 14:39 | 30.13796 | 120.22710 | 2926 ft | 186 kts | 65° |
| 2026-05-08 14:39 | 30.14361 | 120.23994 | 2863 ft | 168 kts | 65° |
| 2026-05-08 14:39 | 30.14856 | 120.25116 | 2827 ft | 149 kts | 66° |
| 2026-05-08 14:39 | 30.15329 | 120.26193 | 2888 ft | 150 kts | 66° |
| 2026-05-08 14:40 | 30.15805 | 120.27277 | 2755 ft | 150 kts | 66° |
| 2026-05-08 14:40 | 30.16273 | 120.28341 | 2550 ft | 146 kts | 65° |
| 2026-05-08 14:40 | 30.16729 | 120.29376 | 2351 ft | 145 kts | 65° |
| 2026-05-08 14:40 | 30.17189 | 120.30418 | 2155 ft | 144 kts | 65° |
| 2026-05-08 14:41 | 30.17645 | 120.31450 | 1968 ft | 144 kts | 65° |
| 2026-05-08 14:41 | 30.18101 | 120.32482 | 1775 ft | 143 kts | 65° |
| 2026-05-08 14:41 | 30.18557 | 120.33511 | 1586 ft | 143 kts | 65° |
| 2026-05-08 14:41 | 30.19011 | 120.34538 | 1395 ft | 142 kts | 65° |
| 2026-05-08 14:42 | 30.19458 | 120.35550 | 1215 ft | 142 kts | 64° |
| 2026-05-08 14:42 | 30.19911 | 120.36569 | 1022 ft | 142 kts | 65° |
| 2026-05-08 14:42 | 30.20356 | 120.37577 | 838 ft | 141 kts | 64° |
| 2026-05-08 14:42 | 30.20810 | 120.38601 | 647 ft | 141 kts | 65° |
| 2026-05-08 14:43 | 30.21246 | 120.39603 | 471 ft | 141 kts | 63° |
| 2026-05-08 14:43 | 30.21689 | 120.40614 | 272 ft | 140 kts | 65° |
| 2026-05-08 14:43 | 30.22139 | 120.41613 | 103 ft | 140 kts | 61° |
| 2026-05-08 14:43 | 30.22568 | 120.42580 | 29 ft | 120 kts | 62° |
| 2026-05-08 14:44 | 30.22869 | 120.43257 | 29 ft | 70 kts | 62° |
| 2026-05-08 14:44 | 30.23022 | 120.43584 | 29 ft | 28 kts | 52° |
| 2026-05-08 14:44 | 30.23157 | 120.43724 | 29 ft | 23 kts | 33° |
| 2026-05-08 14:44 | 30.23250 | 120.43801 | 29 ft | 9 kts | 37° |
| 2026-05-08 14:45 | 30.23304 | 120.43819 | 29 ft | 4 kts | 4° |
| 2026-05-08 14:45 | 30.23331 | 120.43798 | 29 ft | 6 kts | 317° |
| 2026-05-08 14:45 | 30.23381 | 120.43755 | 29 ft | 7 kts | 330° |
| 2026-05-08 14:45 | 30.23433 | 120.43725 | 29 ft | 8 kts | 333° |
| 2026-05-08 14:46 | 30.23492 | 120.43692 | 29 ft | 9 kts | 334° |
| 2026-05-08 14:46 | 30.23557 | 120.43655 | 29 ft | 10 kts | 332° |
| 2026-05-08 14:46 | 30.23596 | 120.43625 | 29 ft | 6 kts | 302° |
| 2026-05-08 14:46 | 30.23598 | 120.43571 | 29 ft | 7 kts | 253° |
| 2026-05-08 14:47 | 30.23585 | 120.43534 | 29 ft | 2 kts | 243° |
| 2026-05-08 14:47 | 30.23580 | 120.43523 | 29 ft | 0 kts | 242° |